GLD1043 SCEL-SBGR
Flight info
| Callsign | GLD1043 |
|---|---|
| Flight time | 3h 9m |
| Altitude | 35000 |
| Route | NEBEG7C NEBEG UL531 ESITO UT652 MUBLU/N0453F370 UT652 SIKOB UM400 SAVLU UZ121 BUXUK |
| Aircraft | A320/M-SDE3FGHIRWY/LB1 |
Departure
| Time | 2026-05-07 22:55 |
|---|---|
| Airport | Comodoro Arturo Merino Benítez International Airport (SCEL) |
Arrival
| Time | 2026-05-08 02:04 |
|---|---|
| Airport | São Paulo/Guarulhos–Governor André Franco Montoro International Airport (SBGR) |
| Time | Latitude | Longitude | Altitude | Speed | Heading |
|---|---|---|---|---|---|
| 2026-05-07 22:31 | -33.39570 | -70.79017 | 1565 ft | 0 kts | 183° |
| 2026-05-07 22:44 | -33.39569 | -70.79017 | 1564 ft | 2 kts | 183° |
| 2026-05-07 22:45 | -33.39546 | -70.79016 | 1564 ft | 3 kts | 183° |
| 2026-05-07 22:45 | -33.39525 | -70.79014 | 1564 ft | 2 kts | 183° |
| 2026-05-07 22:45 | -33.39505 | -70.79017 | 1564 ft | 3 kts | 137° |
| 2026-05-07 22:45 | -33.39496 | -70.79038 | 1564 ft | 3 kts | 93° |
| 2026-05-07 22:46 | -33.39496 | -70.79062 | 1564 ft | 1 kts | 88° |
| 2026-05-07 22:46 | -33.39496 | -70.79063 | 1564 ft | 0 kts | 88° |
| 2026-05-07 22:48 | -33.39496 | -70.79061 | 1564 ft | 1 kts | 88° |
| 2026-05-07 22:48 | -33.39495 | -70.79027 | 1564 ft | 6 kts | 88° |
| 2026-05-07 22:48 | -33.39492 | -70.78961 | 1564 ft | 9 kts | 88° |
| 2026-05-07 22:48 | -33.39476 | -70.78889 | 1564 ft | 10 kts | 51° |
| 2026-05-07 22:49 | -33.39413 | -70.78843 | 1564 ft | 11 kts | 28° |
| 2026-05-07 22:49 | -33.39351 | -70.78801 | 1564 ft | 9 kts | 29° |
| 2026-05-07 22:49 | -33.39293 | -70.78794 | 1564 ft | 8 kts | 354° |
| 2026-05-07 22:49 | -33.39243 | -70.78798 | 1564 ft | 7 kts | 357° |
| 2026-05-07 22:50 | -33.39178 | -70.78801 | 1564 ft | 12 kts | 357° |
| 2026-05-07 22:50 | -33.39077 | -70.78807 | 1564 ft | 17 kts | 357° |
| 2026-05-07 22:50 | -33.38954 | -70.78815 | 1564 ft | 19 kts | 356° |
| 2026-05-07 22:50 | -33.38810 | -70.78822 | 1564 ft | 22 kts | 358° |
| 2026-05-07 22:51 | -33.38700 | -70.78828 | 1564 ft | 14 kts | 358° |
| 2026-05-07 22:51 | -33.38607 | -70.78832 | 1564 ft | 13 kts | 358° |
| 2026-05-07 22:51 | -33.38524 | -70.78835 | 1564 ft | 12 kts | 358° |
| 2026-05-07 22:51 | -33.38424 | -70.78841 | 1564 ft | 16 kts | 357° |
| 2026-05-07 22:52 | -33.38320 | -70.78848 | 1564 ft | 14 kts | 357° |
| 2026-05-07 22:52 | -33.38230 | -70.78853 | 1564 ft | 12 kts | 357° |
| 2026-05-07 22:52 | -33.38152 | -70.78857 | 1564 ft | 10 kts | 357° |
| 2026-05-07 22:52 | -33.38086 | -70.78860 | 1564 ft | 9 kts | 359° |
| 2026-05-07 22:53 | -33.38031 | -70.78860 | 1564 ft | 7 kts | 0° |
| 2026-05-07 22:53 | -33.37973 | -70.78865 | 1564 ft | 12 kts | 354° |
| 2026-05-07 22:53 | -33.37873 | -70.78874 | 1565 ft | 17 kts | 357° |
| 2026-05-07 22:53 | -33.37750 | -70.78878 | 1564 ft | 16 kts | 358° |
| 2026-05-07 22:54 | -33.37646 | -70.78876 | 1564 ft | 12 kts | 22° |
| 2026-05-07 22:54 | -33.37614 | -70.78781 | 1564 ft | 14 kts | 93° |
| 2026-05-07 22:54 | -33.37632 | -70.78683 | 1564 ft | 8 kts | 119° |
| 2026-05-07 22:54 | -33.37686 | -70.78667 | 1565 ft | 14 kts | 178° |
| 2026-05-07 22:55 | -33.38032 | -70.78649 | 1565 ft | 84 kts | 178° |
| 2026-05-07 22:55 | -33.38821 | -70.78607 | 1564 ft | 140 kts | 178° |
| 2026-05-07 22:55 | -33.39926 | -70.78554 | 1765 ft | 166 kts | 179° |
| 2026-05-07 22:55 | -33.41056 | -70.78498 | 2514 ft | 162 kts | 177° |
| 2026-05-07 22:56 | -33.42203 | -70.78428 | 3180 ft | 167 kts | 178° |
| 2026-05-07 22:56 | -33.43408 | -70.78360 | 3553 ft | 184 kts | 178° |
| 2026-05-07 22:56 | -33.44773 | -70.78316 | 3747 ft | 207 kts | 179° |
| 2026-05-07 22:56 | -33.46301 | -70.78256 | 3927 ft | 235 kts | 177° |
| 2026-05-07 22:57 | -33.48011 | -70.78170 | 4342 ft | 256 kts | 177° |
| 2026-05-07 22:57 | -33.49809 | -70.78055 | 5142 ft | 261 kts | 175° |
| 2026-05-07 22:57 | -33.51635 | -70.77915 | 5961 ft | 265 kts | 176° |
| 2026-05-07 22:57 | -33.53499 | -70.77772 | 6741 ft | 271 kts | 176° |
| 2026-05-07 22:58 | -33.55371 | -70.77637 | 7515 ft | 274 kts | 176° |
| 2026-05-07 22:58 | -33.57281 | -70.77507 | 8402 ft | 275 kts | 177° |
| 2026-05-07 22:58 | -33.59196 | -70.77384 | 9238 ft | 277 kts | 177° |
| 2026-05-07 22:58 | -33.61127 | -70.77263 | 10074 ft | 279 kts | 177° |
| 2026-05-07 22:59 | -33.63119 | -70.77139 | 10495 ft | 297 kts | 177° |
| 2026-05-07 22:59 | -33.65264 | -70.77006 | 10683 ft | 320 kts | 177° |
| 2026-05-07 22:59 | -33.67566 | -70.76865 | 10938 ft | 338 kts | 177° |
| 2026-05-07 22:59 | -33.69942 | -70.76719 | 11545 ft | 344 kts | 178° |
| 2026-05-07 23:00 | -33.72340 | -70.76571 | 12323 ft | 344 kts | 178° |
| 2026-05-07 23:00 | -33.74729 | -70.76423 | 13170 ft | 342 kts | 179° |
| 2026-05-07 23:00 | -33.77075 | -70.76257 | 13997 ft | 342 kts | 176° |
| 2026-05-07 23:00 | -33.79360 | -70.75418 | 14669 ft | 351 kts | 156° |
| 2026-05-07 23:01 | -33.81259 | -70.73497 | 15247 ft | 368 kts | 134° |
| 2026-05-07 23:01 | -33.82393 | -70.70648 | 15783 ft | 392 kts | 110° |
| 2026-05-07 23:01 | -33.82648 | -70.67313 | 16281 ft | 407 kts | 98° |
| 2026-05-07 23:01 | -33.82621 | -70.63878 | 16780 ft | 415 kts | 95° |
| 2026-05-07 23:02 | -33.82473 | -70.60383 | 17261 ft | 421 kts | 93° |
| 2026-05-07 23:02 | -33.82274 | -70.56840 | 17735 ft | 427 kts | 93° |
| 2026-05-07 23:02 | -33.82078 | -70.53260 | 18272 ft | 432 kts | 93° |
| 2026-05-07 23:02 | -33.81910 | -70.49623 | 18703 ft | 439 kts | 94° |
| 2026-05-07 23:03 | -33.81775 | -70.45939 | 19104 ft | 443 kts | 95° |
| 2026-05-07 23:03 | -33.81664 | -70.42214 | 19502 ft | 447 kts | 95° |
| 2026-05-07 23:03 | -33.81564 | -70.38458 | 19872 ft | 452 kts | 95° |
| 2026-05-07 23:03 | -33.81466 | -70.34716 | 20304 ft | 455 kts | 95° |
| 2026-05-07 23:04 | -33.81357 | -70.30901 | 20698 ft | 459 kts | 95° |
| 2026-05-07 23:04 | -33.81240 | -70.27057 | 21076 ft | 462 kts | 95° |
| 2026-05-07 23:04 | -33.81117 | -70.23180 | 21451 ft | 465 kts | 95° |
| 2026-05-07 23:04 | -33.80991 | -70.19282 | 21811 ft | 470 kts | 95° |
| 2026-05-07 23:05 | -33.80862 | -70.15335 | 22286 ft | 473 kts | 94° |
| 2026-05-07 23:05 | -33.80730 | -70.11372 | 22754 ft | 476 kts | 95° |
| 2026-05-07 23:05 | -33.80596 | -70.07380 | 23197 ft | 479 kts | 94° |
| 2026-05-07 23:05 | -33.80460 | -70.03360 | 23546 ft | 482 kts | 95° |
| 2026-05-07 23:06 | -33.80324 | -69.99320 | 23886 ft | 486 kts | 95° |
| 2026-05-07 23:06 | -33.80188 | -69.95252 | 24182 ft | 489 kts | 95° |
| 2026-05-07 23:06 | -33.80071 | -69.91158 | 24550 ft | 489 kts | 98° |
| 2026-05-07 23:06 | -33.80292 | -69.87104 | 24958 ft | 483 kts | 105° |
| 2026-05-07 23:07 | -33.80693 | -69.83090 | 25312 ft | 485 kts | 106° |
| 2026-05-07 23:07 | -33.81097 | -69.79063 | 25598 ft | 486 kts | 106° |
| 2026-05-07 23:07 | -33.81503 | -69.75014 | 25906 ft | 489 kts | 106° |
| 2026-05-07 23:07 | -33.81908 | -69.70951 | 26246 ft | 491 kts | 106° |
| 2026-05-07 23:08 | -33.82313 | -69.66867 | 26513 ft | 493 kts | 106° |
| 2026-05-07 23:08 | -33.82713 | -69.62815 | 26751 ft | 495 kts | 107° |
| 2026-05-07 23:08 | -33.83119 | -69.58691 | 27059 ft | 498 kts | 107° |
| 2026-05-07 23:08 | -33.83525 | -69.54540 | 27403 ft | 500 kts | 107° |
| 2026-05-07 23:09 | -33.83929 | -69.50382 | 27701 ft | 502 kts | 107° |
| 2026-05-07 23:09 | -33.84334 | -69.46192 | 27978 ft | 506 kts | 107° |
| 2026-05-07 23:09 | -33.84746 | -69.41965 | 28289 ft | 509 kts | 107° |
| 2026-05-07 23:09 | -33.85159 | -69.37720 | 28567 ft | 511 kts | 108° |
| 2026-05-07 23:10 | -33.85567 | -69.33474 | 28949 ft | 511 kts | 108° |
| 2026-05-07 23:10 | -33.85973 | -69.29217 | 29238 ft | 512 kts | 108° |
| 2026-05-07 23:10 | -33.86375 | -69.24968 | 29682 ft | 510 kts | 108° |
| 2026-05-07 23:10 | -33.86767 | -69.20789 | 30108 ft | 508 kts | 108° |
| 2026-05-07 23:11 | -33.87162 | -69.16575 | 30500 ft | 505 kts | 109° |
| 2026-05-07 23:11 | -33.87558 | -69.12340 | 30940 ft | 501 kts | 109° |
| 2026-05-07 23:11 | -33.87942 | -69.08239 | 31310 ft | 498 kts | 109° |
| 2026-05-07 23:11 | -33.88330 | -69.04106 | 31651 ft | 497 kts | 109° |
| 2026-05-07 23:12 | -33.88718 | -68.99970 | 31980 ft | 495 kts | 110° |
| 2026-05-07 23:12 | -33.89100 | -68.95858 | 32299 ft | 494 kts | 110° |
| 2026-05-07 23:12 | -33.89370 | -68.91712 | 32645 ft | 504 kts | 103° |
| 2026-05-07 23:12 | -33.89142 | -68.87429 | 32951 ft | 521 kts | 93° |
| 2026-05-07 23:13 | -33.88327 | -68.83118 | 33299 ft | 537 kts | 82° |
| 2026-05-07 23:13 | -33.86910 | -68.78895 | 33461 ft | 551 kts | 72° |
| 2026-05-07 23:13 | -33.85260 | -68.74725 | 33700 ft | 551 kts | 73° |
| 2026-05-07 23:13 | -33.83618 | -68.70561 | 33968 ft | 551 kts | 73° |
| 2026-05-07 23:14 | -33.81976 | -68.66387 | 34211 ft | 551 kts | 73° |
| 2026-05-07 23:14 | -33.80341 | -68.62221 | 34451 ft | 551 kts | 73° |
| 2026-05-07 23:14 | -33.78705 | -68.58052 | 34705 ft | 550 kts | 73° |
| 2026-05-07 23:14 | -33.77094 | -68.53949 | 34907 ft | 550 kts | 73° |
| 2026-05-07 23:15 | -33.75436 | -68.49737 | 34973 ft | 550 kts | 72° |
| 2026-05-07 23:15 | -33.72186 | -68.41496 | 34962 ft | 549 kts | 72° |
| 2026-05-07 23:16 | -33.68916 | -68.33213 | 34966 ft | 548 kts | 72° |
| 2026-05-07 23:16 | -33.65639 | -68.24941 | 34957 ft | 549 kts | 72° |
| 2026-05-07 23:17 | -33.62353 | -68.16676 | 34958 ft | 548 kts | 71° |
| 2026-05-07 23:17 | -33.59065 | -68.08437 | 34975 ft | 547 kts | 71° |
| 2026-05-07 23:18 | -33.55780 | -68.00224 | 34981 ft | 545 kts | 71° |
| 2026-05-07 23:18 | -33.52503 | -67.92033 | 34979 ft | 545 kts | 71° |
| 2026-05-07 23:19 | -33.49223 | -67.83849 | 34975 ft | 544 kts | 71° |
| 2026-05-07 23:19 | -33.45963 | -67.75732 | 34970 ft | 544 kts | 71° |
| 2026-05-07 23:20 | -33.42679 | -67.67572 | 34965 ft | 544 kts | 71° |
| 2026-05-07 23:20 | -33.39378 | -67.59420 | 34935 ft | 544 kts | 71° |
| 2026-05-07 23:21 | -33.36068 | -67.51280 | 34970 ft | 544 kts | 71° |
| 2026-05-07 23:21 | -33.32764 | -67.43140 | 34973 ft | 544 kts | 71° |
| 2026-05-07 23:22 | -33.29461 | -67.35002 | 34974 ft | 543 kts | 71° |
| 2026-05-07 23:22 | -33.26153 | -67.26883 | 34977 ft | 543 kts | 71° |
| 2026-05-07 23:23 | -33.22852 | -67.18826 | 35004 ft | 542 kts | 70° |
| 2026-05-07 23:23 | -33.19540 | -67.10754 | 34991 ft | 540 kts | 70° |
| 2026-05-07 23:24 | -33.16237 | -67.02699 | 34978 ft | 540 kts | 70° |
| 2026-05-07 23:24 | -33.12930 | -66.94665 | 34979 ft | 539 kts | 70° |
| 2026-05-07 23:25 | -33.09618 | -66.86635 | 35019 ft | 539 kts | 69° |
| 2026-05-07 23:25 | -33.06301 | -66.78615 | 35004 ft | 539 kts | 69° |
| 2026-05-07 23:26 | -33.02982 | -66.70614 | 34999 ft | 538 kts | 69° |
| 2026-05-07 23:26 | -32.99654 | -66.62619 | 34994 ft | 538 kts | 69° |
| 2026-05-07 23:27 | -32.94670 | -66.50689 | 34974 ft | 538 kts | 69° |
| 2026-05-07 23:27 | -32.91338 | -66.42706 | 34967 ft | 538 kts | 69° |
| 2026-05-07 23:28 | -32.88007 | -66.34740 | 34973 ft | 538 kts | 69° |
| 2026-05-07 23:28 | -32.84662 | -66.26773 | 34975 ft | 538 kts | 69° |
| 2026-05-07 23:29 | -32.81306 | -66.18813 | 35014 ft | 538 kts | 68° |
| 2026-05-07 23:29 | -32.77949 | -66.10867 | 35002 ft | 537 kts | 68° |
| 2026-05-07 23:30 | -32.74568 | -66.02948 | 34995 ft | 538 kts | 68° |
| 2026-05-07 23:30 | -32.71701 | -65.96384 | 34991 ft | 538 kts | 67° |
| 2026-05-07 23:31 | -32.68233 | -65.88503 | 35006 ft | 538 kts | 67° |
| 2026-05-07 23:31 | -32.64767 | -65.80628 | 35006 ft | 538 kts | 67° |
| 2026-05-07 23:32 | -32.61339 | -65.72797 | 34995 ft | 538 kts | 67° |
| 2026-05-07 23:32 | -32.57890 | -65.64924 | 34991 ft | 538 kts | 67° |
| 2026-05-07 23:33 | -32.54424 | -65.57054 | 35004 ft | 538 kts | 67° |
| 2026-05-07 23:33 | -32.50957 | -65.49203 | 34999 ft | 537 kts | 67° |
| 2026-05-07 23:34 | -32.47492 | -65.41370 | 34960 ft | 537 kts | 67° |
| 2026-05-07 23:34 | -32.44021 | -65.33529 | 35276 ft | 537 kts | 67° |
| 2026-05-07 23:35 | -32.42278 | -65.29607 | 35532 ft | 536 kts | 66° |
| 2026-05-07 23:35 | -32.40542 | -65.25709 | 35799 ft | 535 kts | 66° |
| 2026-05-07 23:35 | -32.38812 | -65.21827 | 36063 ft | 533 kts | 66° |
| 2026-05-07 23:35 | -32.37113 | -65.18006 | 36291 ft | 532 kts | 66° |
| 2026-05-07 23:36 | -32.35410 | -65.14125 | 36513 ft | 530 kts | 66° |
| 2026-05-07 23:36 | -32.33742 | -65.10234 | 36722 ft | 529 kts | 66° |
| 2026-05-07 23:36 | -32.32099 | -65.06345 | 36911 ft | 529 kts | 67° |
| 2026-05-07 23:36 | -32.30461 | -65.02446 | 36964 ft | 529 kts | 66° |
| 2026-05-07 23:37 | -32.27169 | -64.94669 | 36967 ft | 528 kts | 66° |
| 2026-05-07 23:37 | -32.23848 | -64.86920 | 36960 ft | 529 kts | 66° |
| 2026-05-07 23:38 | -32.20521 | -64.79225 | 36958 ft | 529 kts | 66° |
| 2026-05-07 23:38 | -32.17173 | -64.71479 | 36956 ft | 529 kts | 66° |
| 2026-05-07 23:39 | -32.13839 | -64.63744 | 36956 ft | 529 kts | 66° |
| 2026-05-07 23:39 | -32.10502 | -64.56007 | 36952 ft | 529 kts | 66° |
| 2026-05-07 23:40 | -32.07151 | -64.48283 | 36951 ft | 530 kts | 66° |
| 2026-05-07 23:40 | -32.03785 | -64.40544 | 36952 ft | 530 kts | 66° |
| 2026-05-07 23:41 | -32.00423 | -64.32823 | 36969 ft | 530 kts | 65° |
| 2026-05-07 23:41 | -31.97075 | -64.25143 | 36938 ft | 531 kts | 65° |
| 2026-05-07 23:42 | -31.93685 | -64.17398 | 36939 ft | 531 kts | 65° |
| 2026-05-07 23:42 | -31.90302 | -64.09666 | 36928 ft | 532 kts | 65° |
| 2026-05-07 23:43 | -31.86900 | -64.01928 | 36961 ft | 532 kts | 65° |
| 2026-05-07 23:43 | -31.83493 | -63.94187 | 36935 ft | 533 kts | 65° |
| 2026-05-07 23:44 | -31.80106 | -63.86487 | 36928 ft | 533 kts | 65° |
| 2026-05-07 23:44 | -31.76678 | -63.78750 | 36931 ft | 534 kts | 65° |
| 2026-05-07 23:45 | -31.73118 | -63.71067 | 36965 ft | 536 kts | 63° |
| 2026-05-07 23:45 | -31.69474 | -63.63422 | 36952 ft | 536 kts | 63° |
| 2026-05-07 23:46 | -31.65855 | -63.55763 | 36946 ft | 536 kts | 64° |
| 2026-05-07 23:46 | -31.62265 | -63.48099 | 36938 ft | 536 kts | 64° |
| 2026-05-07 23:47 | -31.58666 | -63.40422 | 36970 ft | 536 kts | 64° |
| 2026-05-07 23:47 | -31.55057 | -63.32767 | 36958 ft | 536 kts | 64° |
| 2026-05-07 23:48 | -31.51460 | -63.25166 | 36912 ft | 536 kts | 64° |
| 2026-05-07 23:48 | -31.47839 | -63.17527 | 36922 ft | 536 kts | 63° |
| 2026-05-07 23:49 | -31.44250 | -63.09866 | 36939 ft | 536 kts | 65° |
| 2026-05-07 23:49 | -31.40779 | -63.02149 | 36952 ft | 535 kts | 65° |
| 2026-05-07 23:50 | -31.37323 | -62.94432 | 36940 ft | 535 kts | 65° |
| 2026-05-07 23:50 | -31.33836 | -62.86740 | 36948 ft | 535 kts | 65° |
| 2026-05-07 23:51 | -31.30323 | -62.79072 | 36957 ft | 534 kts | 64° |
| 2026-05-07 23:51 | -31.26821 | -62.71422 | 36949 ft | 533 kts | 64° |
| 2026-05-07 23:52 | -31.23333 | -62.63797 | 36946 ft | 532 kts | 64° |
| 2026-05-07 23:52 | -31.19861 | -62.56235 | 36945 ft | 531 kts | 64° |
| 2026-05-07 23:53 | -31.16362 | -62.48639 | 36956 ft | 531 kts | 64° |
| 2026-05-07 23:53 | -31.12870 | -62.41052 | 36951 ft | 530 kts | 64° |
| 2026-05-07 23:54 | -31.09379 | -62.33480 | 36941 ft | 530 kts | 64° |
| 2026-05-07 23:54 | -31.05877 | -62.25912 | 36937 ft | 530 kts | 64° |
| 2026-05-07 23:55 | -31.02394 | -62.18396 | 36953 ft | 530 kts | 63° |
| 2026-05-07 23:55 | -30.98884 | -62.10841 | 36917 ft | 529 kts | 63° |
| 2026-05-07 23:56 | -30.95377 | -62.03307 | 36917 ft | 529 kts | 62° |
| 2026-05-07 23:56 | -30.91861 | -61.95771 | 36920 ft | 529 kts | 62° |
| 2026-05-07 23:57 | -30.88347 | -61.88245 | 36934 ft | 529 kts | 62° |
| 2026-05-07 23:57 | -30.84835 | -61.80742 | 36943 ft | 527 kts | 62° |
| 2026-05-07 23:58 | -30.81323 | -61.73258 | 36947 ft | 526 kts | 62° |
| 2026-05-07 23:58 | -30.77813 | -61.65781 | 36943 ft | 526 kts | 62° |
| 2026-05-07 23:59 | -30.74301 | -61.58327 | 36937 ft | 525 kts | 61° |
| 2026-05-07 23:59 | -30.70783 | -61.50895 | 36932 ft | 525 kts | 61° |
| 2026-05-08 00:00 | -30.67280 | -61.43519 | 36927 ft | 525 kts | 61° |
| 2026-05-08 00:00 | -30.63730 | -61.36100 | 36926 ft | 525 kts | 61° |
| 2026-05-08 00:01 | -30.60157 | -61.28696 | 36935 ft | 524 kts | 60° |
| 2026-05-08 00:01 | -30.56591 | -61.21321 | 36929 ft | 523 kts | 60° |
| 2026-05-08 00:02 | -30.53034 | -61.13944 | 36931 ft | 523 kts | 60° |
| 2026-05-08 00:02 | -30.49500 | -61.06634 | 36926 ft | 523 kts | 60° |
| 2026-05-08 00:03 | -30.45937 | -60.99287 | 36935 ft | 521 kts | 58° |
| 2026-05-08 00:03 | -30.42381 | -60.91979 | 36934 ft | 519 kts | 58° |
| 2026-05-08 00:04 | -30.38834 | -60.84699 | 36928 ft | 518 kts | 58° |
| 2026-05-08 00:04 | -30.35296 | -60.77427 | 36928 ft | 518 kts | 58° |
| 2026-05-08 00:05 | -30.31758 | -60.70161 | 36927 ft | 517 kts | 58° |
| 2026-05-08 00:05 | -30.28223 | -60.62926 | 36928 ft | 515 kts | 58° |
| 2026-05-08 00:06 | -30.24691 | -60.55718 | 36925 ft | 514 kts | 57° |
| 2026-05-08 00:06 | -30.21188 | -60.48577 | 36919 ft | 513 kts | 57° |
| 2026-05-08 00:07 | -30.17680 | -60.41331 | 36910 ft | 514 kts | 61° |
| 2026-05-08 00:07 | -30.15098 | -60.33662 | 36912 ft | 516 kts | 67° |
| 2026-05-08 00:08 | -30.12625 | -60.25873 | 36905 ft | 516 kts | 67° |
| 2026-05-08 00:08 | -30.10145 | -60.18102 | 36905 ft | 516 kts | 66° |
| 2026-05-08 00:09 | -30.07646 | -60.10332 | 36906 ft | 515 kts | 66° |
| 2026-05-08 00:09 | -30.05154 | -60.02591 | 36902 ft | 514 kts | 66° |
| 2026-05-08 00:10 | -30.02682 | -59.94895 | 36905 ft | 514 kts | 66° |
| 2026-05-08 00:10 | -30.00186 | -59.87169 | 36875 ft | 513 kts | 65° |
| 2026-05-08 00:11 | -29.97697 | -59.79463 | 36891 ft | 511 kts | 65° |
| 2026-05-08 00:11 | -29.95209 | -59.71785 | 36895 ft | 510 kts | 65° |
| 2026-05-08 00:12 | -29.92722 | -59.64125 | 36892 ft | 510 kts | 65° |
| 2026-05-08 00:12 | -29.90233 | -59.56477 | 36871 ft | 509 kts | 64° |
| 2026-05-08 00:13 | -29.87763 | -59.48917 | 36883 ft | 507 kts | 63° |
| 2026-05-08 00:13 | -29.85272 | -59.41306 | 36861 ft | 507 kts | 63° |
| 2026-05-08 00:14 | -29.82774 | -59.33703 | 36857 ft | 507 kts | 63° |
| 2026-05-08 00:14 | -29.80279 | -59.26113 | 36878 ft | 506 kts | 62° |
| 2026-05-08 00:15 | -29.77794 | -59.18548 | 36892 ft | 505 kts | 62° |
| 2026-05-08 00:15 | -29.75302 | -59.10993 | 36888 ft | 504 kts | 62° |
| 2026-05-08 00:16 | -29.72826 | -59.03505 | 36885 ft | 503 kts | 62° |
| 2026-05-08 00:16 | -29.70334 | -58.96001 | 36882 ft | 502 kts | 60° |
| 2026-05-08 00:17 | -29.67835 | -58.88504 | 36889 ft | 500 kts | 60° |
| 2026-05-08 00:17 | -29.65399 | -58.81001 | 36886 ft | 501 kts | 61° |
| 2026-05-08 00:18 | -29.63050 | -58.73516 | 36885 ft | 501 kts | 61° |
| 2026-05-08 00:18 | -29.60674 | -58.65992 | 36880 ft | 500 kts | 61° |
| 2026-05-08 00:19 | -29.58275 | -58.58503 | 36876 ft | 499 kts | 61° |
| 2026-05-08 00:19 | -29.55869 | -58.51017 | 36875 ft | 499 kts | 61° |
| 2026-05-08 00:20 | -29.53470 | -58.43543 | 36848 ft | 498 kts | 59° |
| 2026-05-08 00:20 | -29.51068 | -58.36092 | 36871 ft | 497 kts | 59° |
| 2026-05-08 00:21 | -29.48662 | -58.28649 | 36875 ft | 496 kts | 59° |
| 2026-05-08 00:21 | -29.46669 | -58.22491 | 36872 ft | 495 kts | 59° |
| 2026-05-08 00:22 | -29.43879 | -58.13906 | 36865 ft | 493 kts | 59° |
| 2026-05-08 00:22 | -29.41470 | -58.06555 | 36866 ft | 490 kts | 58° |
| 2026-05-08 00:23 | -29.39321 | -58.00510 | 36870 ft | 486 kts | 56° |
| 2026-05-08 00:23 | -29.36638 | -57.93464 | 36876 ft | 484 kts | 55° |
| 2026-05-08 00:24 | -29.33942 | -57.86400 | 36858 ft | 482 kts | 55° |
| 2026-05-08 00:24 | -29.31307 | -57.79341 | 36877 ft | 481 kts | 56° |
| 2026-05-08 00:25 | -29.28697 | -57.72301 | 36874 ft | 479 kts | 56° |
| 2026-05-08 00:25 | -29.26083 | -57.65292 | 36856 ft | 478 kts | 55° |
| 2026-05-08 00:26 | -29.23490 | -57.58303 | 36853 ft | 476 kts | 56° |
| 2026-05-08 00:26 | -29.21063 | -57.51284 | 36863 ft | 477 kts | 57° |
| 2026-05-08 00:27 | -29.18683 | -57.44215 | 36861 ft | 475 kts | 57° |
| 2026-05-08 00:27 | -29.16278 | -57.37190 | 36793 ft | 473 kts | 57° |
| 2026-05-08 00:28 | -29.13843 | -57.30219 | 36841 ft | 471 kts | 56° |
| 2026-05-08 00:28 | -29.11402 | -57.23284 | 36856 ft | 470 kts | 57° |
| 2026-05-08 00:29 | -29.08979 | -57.16352 | 36859 ft | 469 kts | 57° |
| 2026-05-08 00:29 | -29.06578 | -57.09468 | 36808 ft | 468 kts | 56° |
| 2026-05-08 00:30 | -29.04158 | -57.02562 | 36843 ft | 467 kts | 56° |
| 2026-05-08 00:30 | -29.01747 | -56.95680 | 36859 ft | 466 kts | 56° |
| 2026-05-08 00:31 | -28.99338 | -56.88820 | 36844 ft | 464 kts | 56° |
| 2026-05-08 00:31 | -28.96930 | -56.81984 | 36819 ft | 463 kts | 56° |
| 2026-05-08 00:32 | -28.94524 | -56.75168 | 36836 ft | 462 kts | 56° |
| 2026-05-08 00:32 | -28.92123 | -56.68373 | 36847 ft | 461 kts | 56° |
| 2026-05-08 00:33 | -28.89717 | -56.61600 | 36844 ft | 460 kts | 55° |
| 2026-05-08 00:33 | -28.87322 | -56.54890 | 36800 ft | 459 kts | 55° |
| 2026-05-08 00:34 | -28.84929 | -56.48155 | 36829 ft | 458 kts | 55° |
| 2026-05-08 00:34 | -28.82541 | -56.41441 | 36836 ft | 456 kts | 55° |
| 2026-05-08 00:35 | -28.80151 | -56.34735 | 36842 ft | 455 kts | 55° |
| 2026-05-08 00:35 | -28.77761 | -56.28052 | 36812 ft | 455 kts | 55° |
| 2026-05-08 00:36 | -28.75376 | -56.21383 | 36827 ft | 454 kts | 55° |
| 2026-05-08 00:36 | -28.72987 | -56.14727 | 36833 ft | 453 kts | 54° |
| 2026-05-08 00:37 | -28.70648 | -56.08093 | 36802 ft | 455 kts | 56° |
| 2026-05-08 00:38 | -28.67174 | -55.98002 | 36816 ft | 457 kts | 56° |
| 2026-05-08 00:38 | -28.64843 | -55.91267 | 36821 ft | 456 kts | 56° |
| 2026-05-08 00:39 | -28.62497 | -55.84550 | 36816 ft | 456 kts | 56° |
| 2026-05-08 00:39 | -28.60146 | -55.77842 | 36769 ft | 457 kts | 56° |
| 2026-05-08 00:40 | -28.57792 | -55.71120 | 36790 ft | 457 kts | 56° |
| 2026-05-08 00:40 | -28.55450 | -55.64443 | 36794 ft | 457 kts | 56° |
| 2026-05-08 00:41 | -28.53086 | -55.57721 | 36799 ft | 457 kts | 56° |
| 2026-05-08 00:41 | -28.50722 | -55.51005 | 36755 ft | 458 kts | 57° |
| 2026-05-08 00:42 | -28.48350 | -55.44274 | 36749 ft | 460 kts | 57° |
| 2026-05-08 00:42 | -28.45963 | -55.37511 | 36759 ft | 461 kts | 57° |
| 2026-05-08 00:43 | -28.43581 | -55.30793 | 36766 ft | 462 kts | 57° |
| 2026-05-08 00:43 | -28.41170 | -55.24013 | 36745 ft | 463 kts | 58° |
| 2026-05-08 00:44 | -28.38757 | -55.17224 | 36751 ft | 464 kts | 58° |
| 2026-05-08 00:44 | -28.36334 | -55.10419 | 36744 ft | 465 kts | 58° |
| 2026-05-08 00:45 | -28.33892 | -55.03598 | 36743 ft | 466 kts | 58° |
| 2026-05-08 00:45 | -28.31454 | -54.96778 | 36721 ft | 467 kts | 59° |
| 2026-05-08 00:46 | -28.29009 | -54.89923 | 36716 ft | 469 kts | 59° |
| 2026-05-08 00:46 | -28.26550 | -54.83067 | 36711 ft | 470 kts | 58° |
| 2026-05-08 00:47 | -28.24083 | -54.76247 | 36717 ft | 470 kts | 58° |
| 2026-05-08 00:47 | -28.21580 | -54.69324 | 36706 ft | 472 kts | 59° |
| 2026-05-08 00:48 | -28.19110 | -54.62465 | 36713 ft | 473 kts | 59° |
| 2026-05-08 00:48 | -28.16619 | -54.55560 | 36720 ft | 473 kts | 59° |
| 2026-05-08 00:49 | -28.14116 | -54.48663 | 36706 ft | 474 kts | 60° |
| 2026-05-08 00:49 | -28.11591 | -54.41710 | 36714 ft | 482 kts | 60° |
| 2026-05-08 00:50 | -28.09011 | -54.34641 | 36714 ft | 487 kts | 60° |
| 2026-05-08 00:50 | -28.06439 | -54.27546 | 36715 ft | 487 kts | 60° |
| 2026-05-08 00:51 | -28.03852 | -54.20439 | 36714 ft | 490 kts | 60° |
| 2026-05-08 00:51 | -28.01242 | -54.13289 | 36714 ft | 492 kts | 60° |
| 2026-05-08 00:52 | -27.98621 | -54.06135 | 36719 ft | 492 kts | 60° |
| 2026-05-08 00:52 | -27.96007 | -53.99024 | 36706 ft | 492 kts | 60° |
| 2026-05-08 00:53 | -27.93373 | -53.91861 | 36696 ft | 494 kts | 60° |
| 2026-05-08 00:53 | -27.90720 | -53.84676 | 36697 ft | 495 kts | 61° |
| 2026-05-08 00:54 | -27.88062 | -53.77478 | 36707 ft | 496 kts | 61° |
| 2026-05-08 00:54 | -27.85416 | -53.70314 | 36705 ft | 498 kts | 61° |
| 2026-05-08 00:55 | -27.82724 | -53.63046 | 36714 ft | 499 kts | 61° |
| 2026-05-08 00:55 | -27.80036 | -53.55811 | 36721 ft | 499 kts | 61° |
| 2026-05-08 00:56 | -27.77363 | -53.48621 | 36721 ft | 500 kts | 61° |
| 2026-05-08 00:56 | -27.74666 | -53.41386 | 36728 ft | 500 kts | 61° |
| 2026-05-08 00:57 | -27.71965 | -53.34146 | 36730 ft | 500 kts | 60° |
| 2026-05-08 00:57 | -27.69262 | -53.26926 | 36722 ft | 499 kts | 61° |
| 2026-05-08 00:58 | -27.66561 | -53.19702 | 36707 ft | 500 kts | 61° |
| 2026-05-08 00:58 | -27.63842 | -53.12468 | 36715 ft | 501 kts | 61° |
| 2026-05-08 00:59 | -27.61134 | -53.05281 | 36728 ft | 501 kts | 61° |
| 2026-05-08 00:59 | -27.58408 | -52.98034 | 36712 ft | 502 kts | 62° |
| 2026-05-08 01:00 | -27.55682 | -52.90792 | 36736 ft | 503 kts | 62° |
| 2026-05-08 01:00 | -27.52939 | -52.83537 | 36754 ft | 503 kts | 62° |
| 2026-05-08 01:01 | -27.50188 | -52.76274 | 36754 ft | 504 kts | 62° |
| 2026-05-08 01:01 | -27.47431 | -52.69008 | 36769 ft | 504 kts | 62° |
| 2026-05-08 01:02 | -27.44657 | -52.61742 | 36791 ft | 504 kts | 62° |
| 2026-05-08 01:02 | -27.41883 | -52.54486 | 36811 ft | 504 kts | 62° |
| 2026-05-08 01:03 | -27.39130 | -52.47283 | 36799 ft | 504 kts | 62° |
| 2026-05-08 01:03 | -27.36369 | -52.40045 | 36802 ft | 503 kts | 62° |
| 2026-05-08 01:04 | -27.33604 | -52.32816 | 36819 ft | 503 kts | 62° |
| 2026-05-08 01:04 | -27.30830 | -52.25606 | 36809 ft | 502 kts | 62° |
| 2026-05-08 01:05 | -27.28059 | -52.18396 | 36828 ft | 502 kts | 62° |
| 2026-05-08 01:05 | -27.25286 | -52.11200 | 36827 ft | 502 kts | 62° |
| 2026-05-08 01:06 | -27.22505 | -52.04000 | 36823 ft | 502 kts | 62° |
| 2026-05-08 01:06 | -27.19723 | -51.96805 | 36826 ft | 502 kts | 62° |
| 2026-05-08 01:07 | -27.16927 | -51.89610 | 36846 ft | 503 kts | 62° |
| 2026-05-08 01:07 | -27.14144 | -51.82457 | 36850 ft | 503 kts | 62° |
| 2026-05-08 01:08 | -27.11335 | -51.75255 | 36851 ft | 503 kts | 62° |
| 2026-05-08 01:08 | -27.08533 | -51.68060 | 36865 ft | 503 kts | 62° |
| 2026-05-08 01:09 | -27.05722 | -51.60864 | 36874 ft | 503 kts | 61° |
| 2026-05-08 01:09 | -27.02902 | -51.53680 | 36871 ft | 503 kts | 61° |
| 2026-05-08 01:10 | -27.00072 | -51.46493 | 36883 ft | 504 kts | 61° |
| 2026-05-08 01:10 | -26.97246 | -51.39303 | 36896 ft | 504 kts | 62° |
| 2026-05-08 01:11 | -26.94445 | -51.32158 | 36889 ft | 504 kts | 62° |
| 2026-05-08 01:11 | -26.91608 | -51.24989 | 36896 ft | 503 kts | 61° |
| 2026-05-08 01:12 | -26.88767 | -51.17823 | 36899 ft | 503 kts | 61° |
| 2026-05-08 01:12 | -26.85933 | -51.10651 | 36905 ft | 503 kts | 62° |
| 2026-05-08 01:13 | -26.83094 | -51.03486 | 36913 ft | 503 kts | 61° |
| 2026-05-08 01:13 | -26.80248 | -50.96327 | 36918 ft | 503 kts | 61° |
| 2026-05-08 01:14 | -26.77881 | -50.90376 | 36921 ft | 503 kts | 61° |
| 2026-05-08 01:14 | -26.75027 | -50.83223 | 36909 ft | 503 kts | 62° |
| 2026-05-08 01:15 | -26.71714 | -50.74912 | 36918 ft | 503 kts | 61° |
| 2026-05-08 01:15 | -26.69312 | -50.68918 | 36925 ft | 503 kts | 62° |
| 2026-05-08 01:16 | -26.66460 | -50.61837 | 36915 ft | 503 kts | 61° |
| 2026-05-08 01:16 | -26.63581 | -50.54708 | 36918 ft | 503 kts | 61° |
| 2026-05-08 01:17 | -26.60722 | -50.47551 | 36932 ft | 504 kts | 62° |
| 2026-05-08 01:17 | -26.57906 | -50.40367 | 36921 ft | 505 kts | 62° |
| 2026-05-08 01:18 | -26.55077 | -50.33198 | 36923 ft | 504 kts | 62° |
| 2026-05-08 01:18 | -26.52194 | -50.26051 | 36929 ft | 504 kts | 61° |
| 2026-05-08 01:19 | -26.49280 | -50.18922 | 36904 ft | 505 kts | 61° |
| 2026-05-08 01:19 | -26.46372 | -50.11793 | 36919 ft | 506 kts | 61° |
| 2026-05-08 01:20 | -26.43487 | -50.04688 | 36923 ft | 506 kts | 61° |
| 2026-05-08 01:20 | -26.40575 | -49.97539 | 36927 ft | 506 kts | 61° |
| 2026-05-08 01:21 | -26.37654 | -49.90399 | 36920 ft | 506 kts | 61° |
| 2026-05-08 01:21 | -26.34727 | -49.83256 | 36930 ft | 507 kts | 61° |
| 2026-05-08 01:22 | -26.31810 | -49.76095 | 36942 ft | 507 kts | 61° |
| 2026-05-08 01:22 | -26.28903 | -49.68930 | 36935 ft | 508 kts | 61° |
| 2026-05-08 01:23 | -26.25981 | -49.61751 | 36938 ft | 508 kts | 61° |
| 2026-05-08 01:23 | -26.23083 | -49.54618 | 36947 ft | 509 kts | 61° |
| 2026-05-08 01:24 | -26.20141 | -49.47450 | 36934 ft | 509 kts | 60° |
| 2026-05-08 01:24 | -26.17176 | -49.40295 | 36939 ft | 509 kts | 60° |
| 2026-05-08 01:25 | -26.14204 | -49.33126 | 36951 ft | 510 kts | 60° |
| 2026-05-08 01:25 | -26.12515 | -49.29696 | 36945 ft | 502 kts | 49° |
| 2026-05-08 01:25 | -26.10338 | -49.26708 | 36928 ft | 492 kts | 38° |
| 2026-05-08 01:26 | -26.05034 | -49.22161 | 36916 ft | 476 kts | 22° |
| 2026-05-08 01:26 | -25.99333 | -49.18375 | 36927 ft | 478 kts | 23° |
| 2026-05-08 01:27 | -25.93638 | -49.14541 | 36925 ft | 479 kts | 23° |
| 2026-05-08 01:27 | -25.87940 | -49.10710 | 36940 ft | 479 kts | 23° |
| 2026-05-08 01:28 | -25.82261 | -49.06911 | 36947 ft | 480 kts | 23° |
| 2026-05-08 01:28 | -25.76538 | -49.03105 | 36957 ft | 480 kts | 23° |
| 2026-05-08 01:29 | -25.70795 | -48.99299 | 36969 ft | 481 kts | 23° |
| 2026-05-08 01:29 | -25.65052 | -48.95486 | 36983 ft | 482 kts | 23° |
| 2026-05-08 01:30 | -25.59296 | -48.91671 | 36994 ft | 482 kts | 23° |
| 2026-05-08 01:30 | -25.53541 | -48.87866 | 36976 ft | 482 kts | 23° |
| 2026-05-08 01:31 | -25.47785 | -48.84060 | 36959 ft | 482 kts | 23° |
| 2026-05-08 01:31 | -25.41971 | -48.80382 | 36944 ft | 481 kts | 21° |
| 2026-05-08 01:32 | -25.36079 | -48.76865 | 36944 ft | 481 kts | 20° |
| 2026-05-08 01:32 | -25.30192 | -48.73352 | 36945 ft | 481 kts | 21° |
| 2026-05-08 01:33 | -25.24344 | -48.69806 | 36944 ft | 482 kts | 21° |
| 2026-05-08 01:33 | -25.18472 | -48.66240 | 36935 ft | 481 kts | 21° |
| 2026-05-08 01:34 | -25.12595 | -48.62695 | 36938 ft | 482 kts | 21° |
| 2026-05-08 01:34 | -25.06703 | -48.59161 | 36958 ft | 482 kts | 21° |
| 2026-05-08 01:35 | -25.00804 | -48.55627 | 36957 ft | 482 kts | 21° |
| 2026-05-08 01:35 | -24.94912 | -48.52081 | 36969 ft | 482 kts | 21° |
| 2026-05-08 01:36 | -24.89035 | -48.48514 | 36948 ft | 482 kts | 22° |
| 2026-05-08 01:36 | -24.83147 | -48.44947 | 36951 ft | 483 kts | 21° |
| 2026-05-08 01:37 | -24.77275 | -48.41407 | 36946 ft | 484 kts | 21° |
| 2026-05-08 01:37 | -24.71356 | -48.37850 | 36946 ft | 484 kts | 21° |
| 2026-05-08 01:38 | -24.65439 | -48.34288 | 36955 ft | 485 kts | 21° |
| 2026-05-08 01:38 | -24.59524 | -48.30729 | 36934 ft | 485 kts | 22° |
| 2026-05-08 01:39 | -24.53592 | -48.27163 | 36941 ft | 486 kts | 21° |
| 2026-05-08 01:39 | -24.47687 | -48.23622 | 36947 ft | 487 kts | 22° |
| 2026-05-08 01:40 | -24.41736 | -48.20062 | 36950 ft | 487 kts | 22° |
| 2026-05-08 01:40 | -24.35776 | -48.16505 | 36962 ft | 488 kts | 22° |
| 2026-05-08 01:41 | -24.29799 | -48.12950 | 36966 ft | 488 kts | 21° |
| 2026-05-08 01:41 | -24.23813 | -48.09421 | 36981 ft | 488 kts | 21° |
| 2026-05-08 01:42 | -24.17825 | -48.05901 | 36980 ft | 488 kts | 21° |
| 2026-05-08 01:42 | -24.11878 | -48.02410 | 36976 ft | 488 kts | 21° |
| 2026-05-08 01:43 | -24.05890 | -47.98896 | 36984 ft | 489 kts | 22° |
| 2026-05-08 01:43 | -23.99907 | -47.95371 | 36975 ft | 489 kts | 22° |
| 2026-05-08 01:44 | -23.93903 | -47.91837 | 36979 ft | 490 kts | 22° |
| 2026-05-08 01:44 | -23.87894 | -47.88312 | 36559 ft | 492 kts | 22° |
| 2026-05-08 01:44 | -23.84836 | -47.86530 | 35312 ft | 505 kts | 22° |
| 2026-05-08 01:45 | -23.81736 | -47.84725 | 34673 ft | 502 kts | 23° |
| 2026-05-08 01:45 | -23.78682 | -47.82925 | 33570 ft | 498 kts | 25° |
| 2026-05-08 01:45 | -23.75799 | -47.80798 | 32163 ft | 503 kts | 36° |
| 2026-05-08 01:45 | -23.73224 | -47.78230 | 31103 ft | 497 kts | 42° |
| 2026-05-08 01:46 | -23.70748 | -47.75595 | 29923 ft | 496 kts | 42° |
| 2026-05-08 01:46 | -23.68280 | -47.72997 | 28643 ft | 488 kts | 42° |
| 2026-05-08 01:46 | -23.65886 | -47.70490 | 27487 ft | 478 kts | 41° |
| 2026-05-08 01:46 | -23.63472 | -47.67966 | 26419 ft | 481 kts | 41° |
| 2026-05-08 01:47 | -23.61061 | -47.65445 | 26092 ft | 480 kts | 41° |
| 2026-05-08 01:47 | -23.58652 | -47.62923 | 25863 ft | 479 kts | 41° |
| 2026-05-08 01:47 | -23.56253 | -47.60406 | 25670 ft | 478 kts | 41° |
| 2026-05-08 01:48 | -23.51479 | -47.55389 | 24968 ft | 474 kts | 41° |
| 2026-05-08 01:48 | -23.49112 | -47.52902 | 24622 ft | 472 kts | 41° |
| 2026-05-08 01:48 | -23.46756 | -47.50431 | 24263 ft | 469 kts | 41° |
| 2026-05-08 01:48 | -23.44408 | -47.47971 | 23916 ft | 467 kts | 41° |
| 2026-05-08 01:49 | -23.42075 | -47.45529 | 23559 ft | 464 kts | 41° |
| 2026-05-08 01:49 | -23.39750 | -47.43098 | 23179 ft | 461 kts | 41° |
| 2026-05-08 01:49 | -23.37439 | -47.40683 | 22851 ft | 458 kts | 41° |
| 2026-05-08 01:49 | -23.35238 | -47.38189 | 22586 ft | 458 kts | 50° |
| 2026-05-08 01:50 | -23.33592 | -47.35233 | 21885 ft | 457 kts | 65° |
| 2026-05-08 01:50 | -23.32749 | -47.31948 | 21137 ft | 457 kts | 79° |
| 2026-05-08 01:50 | -23.32247 | -47.28543 | 20414 ft | 455 kts | 79° |
| 2026-05-08 01:50 | -23.31745 | -47.25153 | 19703 ft | 452 kts | 79° |
| 2026-05-08 01:51 | -23.31242 | -47.21805 | 19012 ft | 441 kts | 78° |
| 2026-05-08 01:51 | -23.30749 | -47.18568 | 18403 ft | 429 kts | 78° |
| 2026-05-08 01:51 | -23.30257 | -47.15380 | 17727 ft | 426 kts | 78° |
| 2026-05-08 01:51 | -23.29767 | -47.12219 | 17144 ft | 420 kts | 78° |
| 2026-05-08 01:52 | -23.29283 | -47.09101 | 16555 ft | 415 kts | 78° |
| 2026-05-08 01:52 | -23.28805 | -47.06021 | 15970 ft | 411 kts | 78° |
| 2026-05-08 01:52 | -23.28330 | -47.02964 | 15370 ft | 408 kts | 78° |
| 2026-05-08 01:52 | -23.27860 | -46.99934 | 14763 ft | 405 kts | 77° |
| 2026-05-08 01:53 | -23.27392 | -46.96923 | 14138 ft | 403 kts | 77° |
| 2026-05-08 01:53 | -23.26922 | -46.93920 | 13430 ft | 401 kts | 77° |
| 2026-05-08 01:53 | -23.26457 | -46.90938 | 12762 ft | 399 kts | 77° |
| 2026-05-08 01:53 | -23.25996 | -46.87973 | 12071 ft | 397 kts | 77° |
| 2026-05-08 01:54 | -23.25538 | -46.85017 | 11369 ft | 394 kts | 77° |
| 2026-05-08 01:54 | -23.25098 | -46.82152 | 10854 ft | 372 kts | 77° |
| 2026-05-08 01:54 | -23.24694 | -46.79489 | 10704 ft | 343 kts | 76° |
| 2026-05-08 01:54 | -23.24322 | -46.77057 | 10577 ft | 318 kts | 76° |
| 2026-05-08 01:55 | -23.23957 | -46.74706 | 10190 ft | 306 kts | 75° |
| 2026-05-08 01:55 | -23.23598 | -46.72470 | 9978 ft | 301 kts | 75° |
| 2026-05-08 01:55 | -23.23236 | -46.70232 | 9862 ft | 297 kts | 75° |
| 2026-05-08 01:55 | -23.22888 | -46.68059 | 9731 ft | 287 kts | 75° |
| 2026-05-08 01:56 | -23.22757 | -46.65924 | 9599 ft | 284 kts | 94° |
| 2026-05-08 01:56 | -23.23392 | -46.63910 | 9455 ft | 283 kts | 118° |
| 2026-05-08 01:56 | -23.24702 | -46.62317 | 9141 ft | 285 kts | 144° |
| 2026-05-08 01:56 | -23.26468 | -46.61432 | 9004 ft | 275 kts | 169° |
| 2026-05-08 01:57 | -23.28321 | -46.61318 | 8658 ft | 263 kts | 192° |
| 2026-05-08 01:57 | -23.30086 | -46.61805 | 8359 ft | 260 kts | 205° |
| 2026-05-08 01:57 | -23.31705 | -46.62664 | 7891 ft | 262 kts | 218° |
| 2026-05-08 01:57 | -23.33241 | -46.63766 | 7220 ft | 268 kts | 218° |
| 2026-05-08 01:58 | -23.34808 | -46.64892 | 6667 ft | 269 kts | 218° |
| 2026-05-08 01:58 | -23.36356 | -46.65997 | 6280 ft | 261 kts | 218° |
| 2026-05-08 01:58 | -23.37834 | -46.67040 | 6171 ft | 246 kts | 219° |
| 2026-05-08 01:58 | -23.39241 | -46.68034 | 6110 ft | 236 kts | 219° |
| 2026-05-08 01:59 | -23.40607 | -46.68895 | 6069 ft | 225 kts | 205° |
| 2026-05-08 01:59 | -23.42158 | -46.69121 | 6015 ft | 228 kts | 175° |
| 2026-05-08 01:59 | -23.43647 | -46.68545 | 5838 ft | 229 kts | 144° |
| 2026-05-08 01:59 | -23.44698 | -46.67333 | 5553 ft | 215 kts | 119° |
| 2026-05-08 02:00 | -23.45519 | -46.66000 | 5305 ft | 208 kts | 120° |
| 2026-05-08 02:00 | -23.46317 | -46.64731 | 5116 ft | 200 kts | 120° |
| 2026-05-08 02:00 | -23.47014 | -46.63452 | 4925 ft | 191 kts | 104° |
| 2026-05-08 02:00 | -23.47280 | -46.62137 | 4826 ft | 166 kts | 83° |
| 2026-05-08 02:01 | -23.47176 | -46.60949 | 4684 ft | 150 kts | 64° |
| 2026-05-08 02:01 | -23.46889 | -46.59876 | 4507 ft | 145 kts | 63° |
| 2026-05-08 02:01 | -23.46605 | -46.58822 | 4328 ft | 145 kts | 65° |
| 2026-05-08 02:01 | -23.46324 | -46.57776 | 4150 ft | 144 kts | 66° |
| 2026-05-08 02:02 | -23.46042 | -46.56732 | 3966 ft | 144 kts | 66° |
| 2026-05-08 02:02 | -23.45763 | -46.55692 | 3784 ft | 142 kts | 66° |
| 2026-05-08 02:02 | -23.45485 | -46.54660 | 3603 ft | 142 kts | 66° |
| 2026-05-08 02:02 | -23.45206 | -46.53626 | 3428 ft | 142 kts | 67° |
| 2026-05-08 02:03 | -23.44928 | -46.52596 | 3239 ft | 141 kts | 69° |
| 2026-05-08 02:03 | -23.44652 | -46.51569 | 3052 ft | 141 kts | 71° |
| 2026-05-08 02:03 | -23.44377 | -46.50541 | 2867 ft | 142 kts | 72° |
| 2026-05-08 02:03 | -23.44106 | -46.49515 | 2661 ft | 141 kts | 70° |
| 2026-05-08 02:04 | -23.43831 | -46.48499 | 2487 ft | 138 kts | 71° |
| 2026-05-08 02:04 | -23.43656 | -46.47871 | 2466 ft | 119 kts | 73° |
| 2026-05-08 02:04 | -23.43499 | -46.47291 | 2469 ft | 55 kts | 73° |
| 2026-05-08 02:04 | -23.43363 | -46.46935 | 2465 ft | 25 kts | 49° |
| 2026-05-08 02:05 | -23.43297 | -46.46863 | 2462 ft | 18 kts | 44° |
| 2026-05-08 02:05 | -23.43211 | -46.46771 | 2463 ft | 15 kts | 44° |
| 2026-05-08 02:05 | -23.43132 | -46.46707 | 2462 ft | 11 kts | 9° |
| 2026-05-08 02:05 | -23.43056 | -46.46729 | 2467 ft | 12 kts | 343° |
| 2026-05-08 02:06 | -23.42971 | -46.46758 | 2464 ft | 13 kts | 343° |
| 2026-05-08 02:06 | -23.42886 | -46.46785 | 2464 ft | 13 kts | 343° |
| 2026-05-08 02:06 | -23.42797 | -46.46814 | 2461 ft | 13 kts | 341° |
| 2026-05-08 02:06 | -23.42779 | -46.46889 | 2461 ft | 11 kts | 257° |
| 2026-05-08 02:07 | -23.42800 | -46.46965 | 2463 ft | 10 kts | 251° |
| 2026-05-08 02:07 | -23.42819 | -46.47032 | 2462 ft | 9 kts | 253° |
| 2026-05-08 02:07 | -23.42838 | -46.47102 | 2463 ft | 11 kts | 253° |
| 2026-05-08 02:07 | -23.42862 | -46.47193 | 2461 ft | 14 kts | 254° |
| 2026-05-08 02:08 | -23.42891 | -46.47302 | 2461 ft | 14 kts | 253° |
| 2026-05-08 02:08 | -23.42917 | -46.47399 | 2462 ft | 12 kts | 253° |
| 2026-05-08 02:08 | -23.42939 | -46.47482 | 2463 ft | 11 kts | 253° |
| 2026-05-08 02:08 | -23.42961 | -46.47559 | 2461 ft | 12 kts | 252° |
| 2026-05-08 02:09 | -23.42990 | -46.47661 | 2465 ft | 16 kts | 253° |
| 2026-05-08 02:09 | -23.43021 | -46.47778 | 2464 ft | 16 kts | 254° |
| 2026-05-08 02:09 | -23.43049 | -46.47886 | 2461 ft | 15 kts | 254° |
| 2026-05-08 02:09 | -23.43081 | -46.48000 | 2461 ft | 17 kts | 252° |
| 2026-05-08 02:10 | -23.43103 | -46.48086 | 2463 ft | 10 kts | 260° |
| 2026-05-08 02:10 | -23.43047 | -46.48132 | 2463 ft | 13 kts | 352° |
| 2026-05-08 02:10 | -23.42951 | -46.48141 | 2464 ft | 13 kts | 355° |
| 2026-05-08 02:10 | -23.42873 | -46.48127 | 2464 ft | 12 kts | 356° |
| 2026-05-08 02:11 | -23.42806 | -46.48131 | 2465 ft | 6 kts | 8° |
| 2026-05-08 02:11 | -23.42795 | -46.48096 | 2462 ft | 5 kts | 84° |
| 2026-05-08 02:11 | -23.42792 | -46.48072 | 2465 ft | 1 kts | 84° |
| 2026-05-08 02:11 | -23.42792 | -46.48066 | 2464 ft | 0 kts | 84° |